Hitra — 9HRO9 — position and weather

sailwx.info

Track history (hours):
 
Tides and Currents Weather Stations Pressure Air Temp Water Temp Dewpoint Dewpoint Depression Visibility Wind Speed Wind Dir Waves Ship Positions

Hitra

Last reported at 2017-Nov-17 05:34 UTC. Time now 2017-Nov-24 00:22 UTC.
Position N 36°35' W 009°25'.

Length 107 m; draft 6.5 m.

Type: Ship. MMSI: 249421000.

Date/timePositionNaut miles runAvg speedWind from/ knotsBaromVisibWave heightAir tempDewpointWater temp
2017-Nov-17 05:34N 36°35' W 009°25'211.2
2017-Nov-17 05:25N 36°36' W 009°26'511.1
2017-Nov-17 04:56N 36°40' W 009°30'3610.6
2017-Nov-17 01:30N 37°15' W 009°45'810.9
2017-Nov-17 00:48N 37°22' W 009°47'310.9
2017-Nov-17 00:30N 37°25' W 009°48'611.2
2017-Nov-17 00:00N 37°31' W 009°50'611.3
2017-Nov-16 23:31N 37°36' W 009°51'611.2
2017-Nov-16 23:00N 37°42' W 009°53'611.2
2017-Nov-16 22:30N 37°47' W 009°54'611.3
2017-Nov-16 22:01N 37°53' W 009°56'510.8
2017-Nov-16 21:30N 37°58' W 009°58'510.9
2017-Nov-16 21:01N 38°03' W 009°59'611.5
2017-Nov-16 20:31N 38°09' W 010°01'611.1
2017-Nov-16 20:00N 38°14' W 010°02'611.2
2017-Nov-16 19:30N 38°20' W 010°04'611.2
2017-Nov-16 19:01N 38°25' W 010°05'510.8
2017-Nov-16 18:31N 38°31' W 010°07'510.5
2017-Nov-16 18:01N 38°36' W 010°09'510.7
2017-Nov-16 17:30N 38°41' W 010°10'510.5
2017-Nov-16 17:00N 38°46' W 010°10'510.7
2017-Nov-16 16:30N 38°52' W 010°11'511.0
2017-Nov-16 16:01N 38°57' W 010°11'611.2
2017-Nov-16 15:31N 39°02' W 010°10'510.6
2017-Nov-16 15:01N 39°08' W 010°10'510.6
2017-Nov-16 14:30N 39°13' W 010°10'510.9
2017-Nov-16 14:00N 39°19' W 010°11'610.8
2017-Nov-16 13:25N 39°25' W 010°11'510.6
2017-Nov-16 12:59N 39°29' W 010°10'  
2017-Nov-13 02:01N 39°11' W 009°50'510.3
2017-Nov-13 01:30N 39°06' W 009°50'510.4
2017-Nov-13 01:00N 39°01' W 009°50'510.3
2017-Nov-13 00:31N 38°56' W 009°50'510.3
2017-Nov-13 00:00N 38°50' W 009°50'510.0
2017-Nov-12 23:31N 38°45' W 009°50'5 9.9
2017-Nov-12 23:01N 38°41' W 009°49'5 9.9
2017-Nov-12 22:31N 38°36' W 009°48'5 9.8
2017-Nov-12 22:00N 38°31' W 009°46'5 9.3
2017-Nov-12 21:31N 38°26' W 009°45'5 9.3
2017-Nov-12 21:00N 38°22' W 009°44'5 9.4
2017-Nov-12 20:30N 38°17' W 009°42'5 9.4
2017-Nov-12 20:01N 38°13' W 009°41'5 8.9
2017-Nov-12 19:29N 38°08' W 009°40'4 8.6
2017-Nov-12 19:01N 38°04' W 009°39'4 8.5
2017-Nov-12 18:31N 37°60' W 009°38'5 8.8
2017-Nov-12 18:00N 37°56' W 009°36'5 9.1
2017-Nov-12 17:28N 37°51' W 009°35'4 8.6
2017-Nov-12 16:58N 37°47' W 009°33'4 9.1
2017-Nov-12 16:30N 37°43' W 009°31'5 9.2
2017-Nov-12 16:01N 37°38' W 009°30'8 9.6
2017-Nov-12 15:09N 37°30' W 009°29'210.0
2017-Nov-12 14:56N 37°28' W 009°28'510.4
2017-Nov-12 14:30N 37°24' W 009°27'610.7
2017-Nov-12 13:58N 37°18' W 009°25'510.4
2017-Nov-12 13:30N 37°13' W 009°24'510.2
2017-Nov-12 13:01N 37°09' W 009°22'610.6
2017-Nov-12 12:29N 37°03' W 009°21'34 9.2
2017-Nov-12 08:48N 36°44' W 008°46'1211.4
2017-Nov-12 07:42N 36°44' W 008°30'411.4
2017-Nov-12 07:20N 36°44' W 008°25'411.2
2017-Nov-12 07:00N 36°44' W 008°20'611.2
2017-Nov-12 06:30N 36°44' W 008°13'511.1
2017-Nov-12 06:00N 36°45' W 008°07'611.3
2017-Nov-12 05:29N 36°45' W 007°59'  
2017-Nov-08 07:35N 38°00' W 009°58'410.9
2017-Nov-08 07:15N 38°04' W 009°59'310.5
2017-Nov-08 06:56N 38°07' W 010°00'1210.5
2017-Nov-08 05:47N 38°19' W 010°04'310.7
2017-Nov-08 05:30N 38°22' W 010°04'510.4
2017-Nov-08 04:59N 38°27' W 010°06'810.8
2017-Nov-08 04:15N 38°35' W 010°08'311.0
2017-Nov-08 04:00N 38°37' W 010°09'511.0
2017-Nov-08 03:30N 38°43' W 010°10'510.8
2017-Nov-08 03:00N 38°48' W 010°11'510.2
2017-Nov-08 02:30N 38°53' W 010°11'510.0
2017-Nov-08 02:01N 38°58' W 010°10'510.0
2017-Nov-08 01:29N 39°03' W 010°11'510.3
2017-Nov-08 01:00N 39°08' W 010°11'610.8
2017-Nov-08 00:28N 39°14' W 010°11'  
Track history (hours):
 
Tides and Currents Weather Stations Pressure Air Temp Water Temp Dewpoint Dewpoint Depression Visibility Wind Speed Wind Dir Waves Ship Positions

Hitra

Last reported at 2017-Nov-17 05:34 UTC. Time now 2017-Nov-24 00:22 UTC.
Position N 36°35' W 009°25'.

Length 107 m; draft 6.5 m.

Type: Ship. MMSI: 249421000.

Date/timePositionNaut miles runAvg speedWind from/ knotsBaromVisibWave heightAir tempDewpointWater temp
2017-Nov-17 05:34N 36°35' W 009°25'211.2
2017-Nov-17 05:25N 36°36' W 009°26'511.1
2017-Nov-17 04:56N 36°40' W 009°30'3610.6
2017-Nov-17 01:30N 37°15' W 009°45'810.9
2017-Nov-17 00:48N 37°22' W 009°47'310.9
2017-Nov-17 00:30N 37°25' W 009°48'611.2
2017-Nov-17 00:00N 37°31' W 009°50'611.3
2017-Nov-16 23:31N 37°36' W 009°51'611.2
2017-Nov-16 23:00N 37°42' W 009°53'611.2
2017-Nov-16 22:30N 37°47' W 009°54'611.3
2017-Nov-16 22:01N 37°53' W 009°56'510.8
2017-Nov-16 21:30N 37°58' W 009°58'510.9
2017-Nov-16 21:01N 38°03' W 009°59'611.5
2017-Nov-16 20:31N 38°09' W 010°01'611.1
2017-Nov-16 20:00N 38°14' W 010°02'611.2
2017-Nov-16 19:30N 38°20' W 010°04'611.2
2017-Nov-16 19:01N 38°25' W 010°05'510.8
2017-Nov-16 18:31N 38°31' W 010°07'510.5
2017-Nov-16 18:01N 38°36' W 010°09'510.7
2017-Nov-16 17:30N 38°41' W 010°10'510.5
2017-Nov-16 17:00N 38°46' W 010°10'510.7
2017-Nov-16 16:30N 38°52' W 010°11'511.0
2017-Nov-16 16:01N 38°57' W 010°11'611.2
2017-Nov-16 15:31N 39°02' W 010°10'510.6
2017-Nov-16 15:01N 39°08' W 010°10'510.6
2017-Nov-16 14:30N 39°13' W 010°10'510.9
2017-Nov-16 14:00N 39°19' W 010°11'610.8
2017-Nov-16 13:25N 39°25' W 010°11'510.6
2017-Nov-16 12:59N 39°29' W 010°10'  
2017-Nov-13 02:01N 39°11' W 009°50'510.3
2017-Nov-13 01:30N 39°06' W 009°50'510.4
2017-Nov-13 01:00N 39°01' W 009°50'510.3
2017-Nov-13 00:31N 38°56' W 009°50'510.3
2017-Nov-13 00:00N 38°50' W 009°50'510.0
2017-Nov-12 23:31N 38°45' W 009°50'5 9.9
2017-Nov-12 23:01N 38°41' W 009°49'5 9.9
2017-Nov-12 22:31N 38°36' W 009°48'5 9.8
2017-Nov-12 22:00N 38°31' W 009°46'5 9.3
2017-Nov-12 21:31N 38°26' W 009°45'5 9.3
2017-Nov-12 21:00N 38°22' W 009°44'5 9.4
2017-Nov-12 20:30N 38°17' W 009°42'5 9.4
2017-Nov-12 20:01N 38°13' W 009°41'5 8.9
2017-Nov-12 19:29N 38°08' W 009°40'4 8.6
2017-Nov-12 19:01N 38°04' W 009°39'4 8.5
2017-Nov-12 18:31N 37°60' W 009°38'5 8.8
2017-Nov-12 18:00N 37°56' W 009°36'5 9.1
2017-Nov-12 17:28N 37°51' W 009°35'4 8.6
2017-Nov-12 16:58N 37°47' W 009°33'4 9.1
2017-Nov-12 16:30N 37°43' W 009°31'5 9.2
2017-Nov-12 16:01N 37°38' W 009°30'8 9.6
2017-Nov-12 15:09N 37°30' W 009°29'210.0
2017-Nov-12 14:56N 37°28' W 009°28'510.4
2017-Nov-12 14:30N 37°24' W 009°27'610.7
2017-Nov-12 13:58N 37°18' W 009°25'510.4
2017-Nov-12 13:30N 37°13' W 009°24'510.2
2017-Nov-12 13:01N 37°09' W 009°22'610.6
2017-Nov-12 12:29N 37°03' W 009°21'34 9.2
2017-Nov-12 08:48N 36°44' W 008°46'1211.4
2017-Nov-12 07:42N 36°44' W 008°30'411.4
2017-Nov-12 07:20N 36°44' W 008°25'411.2
2017-Nov-12 07:00N 36°44' W 008°20'611.2
2017-Nov-12 06:30N 36°44' W 008°13'511.1
2017-Nov-12 06:00N 36°45' W 008°07'611.3
2017-Nov-12 05:29N 36°45' W 007°59'  
2017-Nov-08 07:35N 38°00' W 009°58'410.9
2017-Nov-08 07:15N 38°04' W 009°59'310.5
2017-Nov-08 06:56N 38°07' W 010°00'1210.5
2017-Nov-08 05:47N 38°19' W 010°04'310.7
2017-Nov-08 05:30N 38°22' W 010°04'510.4
2017-Nov-08 04:59N 38°27' W 010°06'810.8
2017-Nov-08 04:15N 38°35' W 010°08'311.0
2017-Nov-08 04:00N 38°37' W 010°09'511.0
2017-Nov-08 03:30N 38°43' W 010°10'510.8
2017-Nov-08 03:00N 38°48' W 010°11'510.2
2017-Nov-08 02:30N 38°53' W 010°11'510.0
2017-Nov-08 02:01N 38°58' W 010°10'510.0
2017-Nov-08 01:29N 39°03' W 010°11'510.3
2017-Nov-08 01:00N 39°08' W 010°11'610.8
2017-Nov-08 00:28N 39°14' W 010°11'  

Dump ship's entire track history